Time;durP1;ratioP1;P1;durP2;ratioP2;P2;SDS_P1;SDS_P2;PMS_P1;PMS_P2;Temp;Humidity;BMP_temperature;BMP_pressure;BME280_temperature;BME280_humidity;BME280_pressure;Samples;Min_cycle;Max_cycle;Signal;HPM_P1;HPM_P2
2024/01/25 00:01:08;;;;;;;32.70;7.63;;;11.30;99.90;;;;;;5048038;28;20036;-78
2024/01/25 00:03:34;;;;;;;34.85;8.40;;;11.10;99.90;;;;;;5061710;28;20036;-76
2024/01/25 00:06:00;;;;;;;37.28;8.40;;;11.20;99.90;;;;;;5043930;28;20048;-76
2024/01/25 00:08:25;;;;;;;36.55;8.65;;;11.20;99.90;;;;;;5057524;28;20048;-77
2024/01/25 00:10:51;;;;;;;33.15;7.40;;;11.20;99.90;;;;;;5058742;28;20044;-79
2024/01/25 00:13:17;;;;;;;37.90;8.15;;;10.60;99.90;;;;;;5047038;28;20036;-76
2024/01/25 00:15:42;;;;;;;33.67;8.40;;;11.10;99.90;;;;;;5048014;28;20508;-79
2024/01/25 00:18:08;;;;;;;29.05;7.38;;;10.90;99.90;;;;;;5055773;28;20068;-78
2024/01/25 00:20:34;;;;;;;39.45;8.48;;;11.10;99.90;;;;;;5045987;28;20089;-79
2024/01/25 00:22:59;;;;;;;37.47;8.35;;;10.40;99.90;;;;;;5049924;28;20540;-79
2024/01/25 00:25:25;;;;;;;30.65;7.10;;;10.50;99.90;;;;;;5048116;28;20115;-83
2024/01/25 00:27:51;;;;;;;36.83;8.23;;;10.80;99.90;;;;;;5042991;28;20121;-81
2024/01/25 00:30:17;;;;;;;35.08;7.93;;;11.00;99.90;;;;;;5060902;28;20036;-82
2024/01/25 00:32:43;;;;;;;35.70;7.85;;;10.90;99.90;;;;;;5044242;28;20045;-78
2024/01/25 00:35:10;;;;;;;35.15;8.23;;;10.30;99.90;;;;;;5054865;28;20033;-79
2024/01/25 00:37:37;;;;;;;35.72;8.18;;;10.40;99.90;;;;;;5057506;28;20128;-82
2024/01/25 00:40:03;;;;;;;34.58;8.60;;;10.90;99.90;;;;;;5068920;28;20049;-76
2024/01/25 00:42:30;;;;;;;34.97;8.15;;;10.80;99.90;;;;;;5065279;28;20060;-78
2024/01/25 00:44:56;;;;;;;40.92;8.43;;;10.20;99.90;;;;;;5049269;28;20409;-82
2024/01/25 00:47:22;;;;;;;38.63;8.52;;;10.20;99.90;;;;;;5026541;28;20079;-79
2024/01/25 00:49:48;;;;;;;36.67;7.63;;;10.80;99.90;;;;;;5060378;28;20397;-79
2024/01/25 00:52:14;;;;;;;36.88;7.90;;;10.00;99.90;;;;;;5045754;28;21294;-79
2024/01/25 00:54:40;;;;;;;31.58;7.72;;;10.00;99.90;;;;;;5048617;28;20144;-83
2024/01/25 00:57:06;;;;;;;34.92;8.85;;;10.60;99.90;;;;;;5045365;28;20128;-81
2024/01/25 00:59:32;;;;;;;33.47;8.52;;;10.20;99.90;;;;;;5061035;28;20128;-78
2024/01/25 01:01:59;;;;;;;33.78;8.25;;;10.60;99.90;;;;;;5059385;28;20570;-80
2024/01/25 01:04:26;;;;;;;39.88;8.70;;;9.90;99.90;;;;;;5031162;28;20051;-82
2024/01/25 01:06:52;;;;;;;37.22;8.23;;;10.00;99.90;;;;;;5061502;28;20119;-81
2024/01/25 01:09:18;;;;;;;34.53;8.38;;;10.00;99.90;;;;;;5031026;28;20475;-77
2024/01/25 01:11:43;;;;;;;36.85;8.77;;;9.90;99.90;;;;;;5063090;28;20055;-80
2024/01/25 01:14:09;;;;;;;43.08;8.38;;;10.30;99.90;;;;;;5070907;28;20064;-80
2024/01/25 01:16:36;;;;;;;34.65;8.20;;;10.60;99.90;;;;;;5045379;28;20060;-79
2024/01/25 01:19:05;;;;;;;41.65;9.18;;;10.30;99.90;;;;;;5051887;28;20041;-81
2024/01/25 01:21:35;;;;;;;38.45;8.82;;;10.30;99.90;;;;;;5045192;28;20033;-79
2024/01/25 01:24:01;;;;;;;33.13;8.07;;;10.00;99.90;;;;;;5059455;28;20036;-74
2024/01/25 01:26:27;;;;;;;33.88;8.70;;;10.50;99.90;;;;;;5045380;28;20369;-79
2024/01/25 01:28:52;;;;;;;33.55;8.23;;;10.00;99.90;;;;;;5050608;28;20366;-76
2024/01/25 01:31:18;;;;;;;36.50;7.93;;;9.80;99.90;;;;;;5058978;28;20067;-77
2024/01/25 01:33:44;;;;;;;37.63;7.65;;;10.20;99.90;;;;;;5049449;28;20040;-79
2024/01/25 01:36:10;;;;;;;41.20;9.07;;;10.40;99.90;;;;;;5050333;28;20047;-80
2024/01/25 01:38:35;;;;;;;37.28;9.15;;;10.50;99.90;;;;;;5048354;28;20033;-77
2024/01/25 01:41:02;;;;;;;36.15;8.15;;;9.80;99.90;;;;;;5038733;28;20382;-79
2024/01/25 01:43:27;;;;;;;33.53;8.15;;;10.50;99.90;;;;;;5032461;28;20041;-77
2024/01/25 01:46:00;;;;;;;29.95;7.70;;;10.30;99.90;;;;;;5045692;28;20059;-80
2024/01/25 01:48:26;;;;;;;37.47;8.32;;;10.40;99.90;;;;;;5070040;28;20041;-80
2024/01/25 01:50:52;;;;;;;31.77;7.80;;;9.80;99.90;;;;;;5065549;28;20032;-80
2024/01/25 01:53:18;;;;;;;37.90;8.57;;;10.30;99.90;;;;;;5060552;28;20044;-76
2024/01/25 01:55:44;;;;;;;42.05;8.88;;;10.40;99.90;;;;;;5027399;28;20041;-77
2024/01/25 01:58:09;;;;;;;38.88;8.38;;;10.10;99.90;;;;;;5048152;28;20488;-75
2024/01/25 02:00:37;;;;;;;36.83;8.48;;;10.30;99.90;;;;;;5057717;28;20075;-76
2024/01/25 02:03:03;;;;;;;41.25;8.70;;;10.40;99.90;;;;;;5048517;28;20415;-78
2024/01/25 02:05:29;;;;;;;32.72;7.60;;;9.60;99.90;;;;;;5035259;28;20111;-78
2024/01/25 02:07:55;;;;;;;40.85;8.52;;;10.10;99.90;;;;;;5075452;28;20131;-78
2024/01/25 02:10:20;;;;;;;36.67;8.35;;;9.80;99.90;;;;;;5026644;28;20045;-76
2024/01/25 02:12:46;;;;;;;33.75;7.57;;;10.40;99.90;;;;;;5045792;28;20119;-77
2024/01/25 02:15:12;;;;;;;39.33;8.50;;;9.70;99.90;;;;;;5043021;28;20028;-80
2024/01/25 02:17:38;;;;;;;35.33;8.40;;;9.50;99.90;;;;;;5047816;28;20123;-75
2024/01/25 02:20:04;;;;;;;40.22;8.23;;;10.30;99.90;;;;;;5052520;28;20043;-80
2024/01/25 02:22:30;;;;;;;41.10;8.68;;;10.10;99.90;;;;;;5043020;28;20044;-80
2024/01/25 02:24:56;;;;;;;33.45;7.82;;;10.20;99.90;;;;;;5049148;28;20044;-76
2024/01/25 02:27:21;;;;;;;36.60;8.25;;;9.90;99.90;;;;;;5065919;28;20044;-80
2024/01/25 02:29:47;;;;;;;37.65;8.52;;;9.80;99.90;;;;;;5068120;28;20055;-76
2024/01/25 02:32:13;;;;;;;41.95;9.23;;;9.70;99.90;;;;;;5045944;28;20306;-76
2024/01/25 02:34:38;;;;;;;47.38;9.30;;;10.20;99.90;;;;;;5057960;28;20061;-79
2024/01/25 02:37:05;;;;;;;40.33;8.50;;;10.10;99.90;;;;;;5045422;28;20064;-75
2024/01/25 02:39:31;;;;;;;33.65;7.95;;;9.50;99.90;;;;;;5040076;28;20068;-76
2024/01/25 02:41:56;;;;;;;38.35;8.65;;;9.60;99.90;;;;;;5071971;28;20037;-75
2024/01/25 02:44:22;;;;;;;38.10;8.07;;;9.70;99.90;;;;;;5031909;28;20037;-77
2024/01/25 02:46:48;;;;;;;37.65;8.68;;;10.20;99.90;;;;;;5033121;28;20047;-78
2024/01/25 02:49:13;;;;;;;33.35;8.05;;;10.10;99.90;;;;;;5049136;28;20035;-76
2024/01/25 02:51:39;;;;;;;43.50;9.13;;;9.90;99.90;;;;;;5048067;28;20106;-77
2024/01/25 02:54:05;;;;;;;44.25;9.15;;;9.40;99.90;;;;;;5049210;28;20521;-76
2024/01/25 02:56:34;;;;;;;36.65;8.30;;;10.20;99.90;;;;;;5025630;28;20576;-80
2024/01/25 02:59:03;;;;;;;42.60;8.52;;;9.50;99.90;;;;;;5028236;28;20116;-77
2024/01/25 03:01:37;;;;;;;39.72;9.55;;;9.90;99.90;;;;;;5074360;28;20078;-79
2024/01/25 03:04:03;;;;;;;41.08;9.48;;;9.40;99.90;;;;;;5040858;28;20126;-77
2024/01/25 03:06:29;;;;;;;43.83;8.95;;;9.50;99.90;;;;;;5032433;28;20040;-76
2024/01/25 03:08:54;;;;;;;36.10;8.35;;;9.90;99.90;;;;;;5050156;28;20136;-81
2024/01/25 03:11:20;;;;;;;36.72;9.02;;;9.30;99.90;;;;;;5043223;28;20639;-79
2024/01/25 03:13:46;;;;;;;40.38;8.90;;;10.00;99.90;;;;;;5064889;28;20041;-76
2024/01/25 03:16:11;;;;;;;34.72;8.73;;;9.70;99.90;;;;;;5041163;28;20052;-78
2024/01/25 03:18:37;;;;;;;43.50;9.98;;;9.20;99.90;;;;;;5015495;28;20041;-79
2024/01/25 03:21:03;;;;;;;39.63;8.98;;;9.20;99.90;;;;;;5033821;28;20040;-78
2024/01/25 03:23:28;;;;;;;33.53;9.25;;;9.20;99.90;;;;;;5050971;28;20440;-78
2024/01/25 03:25:54;;;;;;;37.17;9.00;;;10.00;99.90;;;;;;5045110;28;20139;-78
2024/01/25 03:28:20;;;;;;;38.03;9.43;;;9.30;99.90;;;;;;5047352;28;20048;-77
2024/01/25 03:30:45;;;;;;;42.15;9.82;;;9.20;99.90;;;;;;5038338;28;20101;-80
2024/01/25 03:33:11;;;;;;;43.50;9.27;;;9.80;99.90;;;;;;5041346;28;20060;-78
2024/01/25 03:35:37;;;;;;;38.03;9.00;;;9.30;99.90;;;;;;5023578;28;20476;-81
2024/01/25 03:38:03;;;;;;;35.63;8.75;;;9.90;99.90;;;;;;5069717;28;20072;-82
2024/01/25 03:40:28;;;;;;;48.05;11.00;;;9.30;99.90;;;;;;5057007;28;20056;-76
2024/01/25 03:42:54;;;;;;;38.10;9.15;;;9.30;99.90;;;;;;5027256;28;20525;-77
2024/01/25 03:45:19;;;;;;;40.15;9.23;;;9.20;99.90;;;;;;5042554;28;20040;-79
2024/01/25 03:47:45;;;;;;;43.10;9.07;;;9.60;99.90;;;;;;5060401;28;20040;-79
2024/01/25 03:50:11;;;;;;;49.38;9.10;;;9.30;99.90;;;;;;5030241;28;20041;-79
2024/01/25 03:52:36;;;;;;;41.10;9.85;;;9.70;99.90;;;;;;5064729;28;20044;-78
2024/01/25 03:55:03;;;;;;;40.92;9.63;;;9.40;99.90;;;;;;5043973;28;20055;-79
2024/01/25 03:57:28;;;;;;;37.15;8.57;;;9.60;99.90;;;;;;5024651;28;20033;-79
2024/01/25 03:59:54;;;;;;;42.08;9.52;;;9.00;99.90;;;;;;5060212;28;20044;-81
2024/01/25 04:02:20;;;;;;;45.40;10.40;;;9.70;99.90;;;;;;5058526;28;20044;-78
2024/01/25 04:04:45;;;;;;;40.97;8.88;;;9.60;99.90;;;;;;5030393;28;20051;-77
2024/01/25 04:07:11;;;;;;;42.53;8.43;;;9.00;99.90;;;;;;5067353;28;20071;-77
2024/01/25 04:09:37;;;;;;;44.97;9.07;;;9.80;99.90;;;;;;5027449;28;20461;-77
2024/01/25 04:12:03;;;;;;;45.85;9.05;;;9.00;99.90;;;;;;5023856;28;20029;-76
2024/01/25 04:14:28;;;;;;;33.42;9.27;;;9.70;99.90;;;;;;5051850;28;20055;-79
2024/01/25 04:16:54;;;;;;;44.50;9.27;;;9.30;99.90;;;;;;5044741;28;20385;-79
2024/01/25 04:19:20;;;;;;;42.08;9.90;;;8.80;99.90;;;;;;5039267;28;20064;-81
2024/01/25 04:21:45;;;;;;;42.15;9.63;;;9.00;99.90;;;;;;5060492;28;20029;-77
2024/01/25 04:24:11;;;;;;;45.60;9.85;;;9.20;99.90;;;;;;5065085;28;20056;-78
2024/01/25 04:26:36;;;;;;;36.00;8.65;;;9.60;99.90;;;;;;5062275;28;20048;-83
2024/01/25 04:29:02;;;;;;;38.92;9.27;;;9.20;99.90;;;;;;5030721;28;20032;-80
2024/01/25 04:31:28;;;;;;;45.65;10.30;;;9.50;99.90;;;;;;5038019;28;20033;-80
2024/01/25 04:33:53;;;;;;;39.42;9.73;;;9.40;99.90;;;;;;5056355;28;20481;-76
2024/01/25 04:36:19;;;;;;;48.45;10.45;;;9.50;99.90;;;;;;5060601;28;20079;-80
2024/01/25 04:38:46;;;;;;;44.40;9.70;;;9.00;99.90;;;;;;5030174;28;20036;-79
2024/01/25 04:41:11;;;;;;;47.67;9.60;;;8.80;99.90;;;;;;5043870;28;20493;-79
2024/01/25 04:43:37;;;;;;;42.17;9.82;;;9.50;99.90;;;;;;5042394;28;20059;-76
2024/01/25 04:46:03;;;;;;;40.55;10.27;;;9.50;99.90;;;;;;5060771;28;20404;-79
2024/01/25 04:48:29;;;;;;;44.20;10.50;;;9.10;99.90;;;;;;5062662;28;20407;-78
2024/01/25 04:50:58;;;;;;;46.50;10.15;;;8.80;99.90;;;;;;5013083;28;20041;-78
2024/01/25 04:53:24;;;;;;;43.25;10.32;;;9.20;99.90;;;;;;5069888;28;20036;-78
2024/01/25 04:55:49;;;;;;;48.42;10.00;;;9.40;99.90;;;;;;5053795;28;20048;-76
2024/01/25 04:58:15;;;;;;;52.83;10.32;;;9.20;99.90;;;;;;5054470;28;20486;-77
2024/01/25 05:00:41;;;;;;;48.97;11.20;;;9.40;99.90;;;;;;5046302;28;20078;-78
2024/01/25 05:03:06;;;;;;;55.10;9.43;;;9.40;99.90;;;;;;5029274;28;20037;-80
2024/01/25 05:05:32;;;;;;;46.55;9.98;;;8.60;99.90;;;;;;5048695;28;20028;-82
2024/01/25 05:07:58;;;;;;;57.22;10.13;;;8.60;99.90;;;;;;5043219;28;20078;-76
2024/01/25 05:10:25;;;;;;;41.97;9.43;;;8.60;99.90;;;;;;5064815;28;20039;-78
2024/01/25 05:12:51;;;;;;;45.67;10.40;;;9.00;99.90;;;;;;5044950;28;21800;-78
2024/01/25 05:15:16;;;;;;;43.13;9.00;;;9.00;99.90;;;;;;5042585;28;20087;-81
2024/01/25 05:17:42;;;;;;;49.88;10.15;;;9.50;99.90;;;;;;5034389;28;20036;-76
2024/01/25 05:20:08;;;;;;;43.35;9.93;;;8.50;99.90;;;;;;5067649;28;20120;-80
2024/01/25 05:22:40;;;;;;;44.08;10.00;;;9.30;99.90;;;;;;5048412;28;20069;-76
2024/01/25 05:25:06;;;;;;;53.10;10.77;;;8.90;99.90;;;;;;5032285;28;20067;-77
2024/01/25 05:27:32;;;;;;;54.35;11.20;;;8.50;99.90;;;;;;5042138;28;20033;-76
2024/01/25 05:29:58;;;;;;;43.58;10.23;;;9.00;99.90;;;;;;5067481;28;20114;-76
2024/01/25 05:32:23;;;;;;;51.78;9.68;;;8.60;99.90;;;;;;5042716;28;20068;-80
2024/01/25 05:34:49;;;;;;;42.17;9.23;;;9.30;99.90;;;;;;5049075;28;20044;-75
2024/01/25 05:37:15;;;;;;;48.83;10.25;;;9.30;99.90;;;;;;5047304;28;20162;-77
2024/01/25 05:39:40;;;;;;;42.47;9.55;;;8.70;99.90;;;;;;5063991;28;20509;-79
2024/01/25 05:42:06;;;;;;;47.65;10.00;;;9.30;99.90;;;;;;5068816;28;20044;-80
2024/01/25 05:44:32;;;;;;;52.67;10.77;;;9.10;99.90;;;;;;5047798;28;20040;-79
2024/01/25 05:46:57;;;;;;;46.25;10.27;;;8.50;99.90;;;;;;5033654;28;20037;-81
2024/01/25 05:49:23;;;;;;;46.90;10.90;;;9.40;99.90;;;;;;5049425;28;20071;-78
2024/01/25 05:51:49;;;;;;;50.75;10.25;;;8.50;99.90;;;;;;5061219;28;20417;-80
2024/01/25 05:54:15;;;;;;;42.13;10.18;;;8.50;99.90;;;;;;5063560;28;20425;-82
2024/01/25 05:56:40;;;;;;;44.80;10.27;;;8.80;99.90;;;;;;5051080;28;20047;-81
2024/01/25 05:59:06;;;;;;;50.58;10.43;;;8.40;99.90;;;;;;5055999;28;20707;-78
2024/01/25 06:01:31;;;;;;;45.55;9.32;;;9.10;99.90;;;;;;5047310;28;20040;-79
2024/01/25 06:03:57;;;;;;;44.30;9.10;;;9.20;99.90;;;;;;5065420;28;20083;-81
2024/01/25 06:06:23;;;;;;;50.33;10.65;;;8.60;99.90;;;;;;5042798;28;20051;-78
2024/01/25 06:08:48;;;;;;;41.17;9.55;;;8.70;99.90;;;;;;5046546;28;20572;-79
2024/01/25 06:11:15;;;;;;;50.33;10.77;;;8.40;99.90;;;;;;5046107;28;20114;-77
2024/01/25 06:13:41;;;;;;;47.72;9.55;;;8.30;99.90;;;;;;5036915;28;20040;-75
2024/01/25 06:16:07;;;;;;;49.38;11.38;;;8.70;99.90;;;;;;5065892;28;20087;-77
2024/01/25 06:18:32;;;;;;;46.70;9.77;;;8.80;99.90;;;;;;5046413;28;20125;-77
2024/01/25 06:20:58;;;;;;;48.63;10.88;;;8.60;99.90;;;;;;5061037;28;20032;-78
2024/01/25 06:23:24;;;;;;;46.40;10.68;;;8.70;99.90;;;;;;5054905;28;20085;-78
2024/01/25 06:25:49;;;;;;;48.03;11.70;;;8.70;99.90;;;;;;5046456;28;20048;-77
2024/01/25 06:28:15;;;;;;;44.78;10.38;;;8.90;99.90;;;;;;5051639;28;20457;-78
2024/01/25 06:30:42;;;;;;;52.28;11.02;;;8.80;99.90;;;;;;5046789;28;20661;-80
2024/01/25 06:33:07;;;;;;;45.03;10.25;;;8.10;99.90;;;;;;5040896;28;20123;-80
2024/01/25 06:35:33;;;;;;;48.50;10.57;;;8.50;99.90;;;;;;5048463;28;20076;-78
2024/01/25 06:37:59;;;;;;;47.95;11.15;;;8.40;99.90;;;;;;5046584;28;20040;-81
2024/01/25 06:40:25;;;;;;;44.53;10.88;;;8.80;99.90;;;;;;5065535;28;20048;-79
2024/01/25 06:42:50;;;;;;;51.20;10.65;;;8.00;99.90;;;;;;5044542;28;20461;-82
2024/01/25 06:45:17;;;;;;;50.03;10.70;;;8.00;99.90;;;;;;5064118;28;20162;-80
2024/01/25 06:47:43;;;;;;;42.83;11.35;;;8.50;99.90;;;;;;5031434;28;20044;-77
2024/01/25 06:50:09;;;;;;;44.88;9.68;;;8.70;99.90;;;;;;5032531;28;20046;-77
2024/01/25 06:52:37;;;;;;;44.05;11.25;;;8.70;99.90;;;;;;5032156;28;20032;-78
2024/01/25 06:55:04;;;;;;;53.75;10.90;;;7.90;99.90;;;;;;5029297;28;20032;-74
2024/01/25 06:57:30;;;;;;;52.20;10.70;;;8.60;99.90;;;;;;5067137;28;20040;-78
2024/01/25 06:59:55;;;;;;;56.10;10.85;;;7.90;99.90;;;;;;5048602;28;20051;-81
2024/01/25 07:02:21;;;;;;;56.22;10.32;;;8.20;99.90;;;;;;5038365;28;20033;-79
2024/01/25 07:04:47;;;;;;;49.30;10.77;;;8.60;99.90;;;;;;5055499;28;20145;-78
2024/01/25 07:07:13;;;;;;;55.88;10.27;;;8.10;99.90;;;;;;5029697;28;20044;-78
2024/01/25 07:09:38;;;;;;;54.88;10.48;;;8.10;99.90;;;;;;5027730;28;20129;-81
2024/01/25 07:12:05;;;;;;;46.60;10.38;;;8.30;99.90;;;;;;5066362;28;20094;-79
2024/01/25 07:14:30;;;;;;;48.33;10.15;;;8.40;99.90;;;;;;5045865;28;20036;-82
2024/01/25 07:16:56;;;;;;;50.65;9.70;;;7.80;99.90;;;;;;5050101;28;20051;-77
2024/01/25 07:19:21;;;;;;;56.45;11.50;;;8.40;99.90;;;;;;5056876;28;20643;-81
2024/01/25 07:21:47;;;;;;;40.47;10.02;;;8.50;99.90;;;;;;5046070;28;22089;-80
2024/01/25 07:24:13;;;;;;;49.20;10.10;;;8.50;99.90;;;;;;5059365;28;20051;-80
2024/01/25 07:26:38;;;;;;;50.80;10.63;;;8.60;99.90;;;;;;5030814;28;20053;-79
2024/01/25 07:29:04;;;;;;;42.05;9.68;;;8.10;99.90;;;;;;5030584;28;20503;-79
2024/01/25 07:31:30;;;;;;;54.30;10.70;;;8.50;99.90;;;;;;5055789;28;20117;-78
2024/01/25 07:33:55;;;;;;;54.90;10.68;;;7.70;99.90;;;;;;5036498;28;20044;-80
2024/01/25 07:36:21;;;;;;;47.20;10.75;;;8.20;99.90;;;;;;5017698;28;20029;-77
2024/01/25 07:38:48;;;;;;;54.08;11.05;;;8.60;99.90;;;;;;5027506;28;20033;-78
2024/01/25 07:41:17;;;;;;;52.95;12.65;;;7.90;99.90;;;;;;5050516;28;20074;-80
2024/01/25 07:43:49;;;;;;;52.08;11.05;;;8.30;99.90;;;;;;5051359;28;20500;-78
2024/01/25 07:46:14;;;;;;;53.20;10.77;;;8.30;99.90;;;;;;5035305;28;20128;-79
2024/01/25 07:48:40;;;;;;;46.63;11.38;;;8.30;99.90;;;;;;5040140;28;20067;-79
2024/01/25 07:51:13;;;;;;;49.42;11.02;;;8.80;99.90;;;;;;5059144;28;20067;-81
2024/01/25 07:53:39;;;;;;;48.67;10.77;;;7.90;99.90;;;;;;5049433;28;20095;-77
2024/01/25 07:56:08;;;;;;;53.30;11.40;;;8.40;99.90;;;;;;5045676;28;20028;-78
2024/01/25 07:58:35;;;;;;;44.25;11.00;;;8.20;99.90;;;;;;5062673;28;20037;-79
2024/01/25 08:01:08;;;;;;;54.58;10.82;;;8.50;99.90;;;;;;5085625;28;20746;-80
2024/01/25 08:03:35;;;;;;;50.35;10.90;;;7.90;99.90;;;;;;5044751;28;20434;-78
2024/01/25 08:06:02;;;;;;;51.28;10.88;;;7.80;99.90;;;;;;5032794;28;20036;-76
2024/01/25 08:08:28;;;;;;;54.72;11.40;;;7.80;99.90;;;;;;5020176;28;20033;-79
2024/01/25 08:10:54;;;;;;;44.75;11.40;;;8.70;99.90;;;;;;5059335;28;20062;-77
2024/01/25 08:13:19;;;;;;;54.92;13.05;;;8.20;99.90;;;;;;5036542;28;20063;-76
2024/01/25 08:15:45;;;;;;;57.05;14.13;;;8.60;99.90;;;;;;5012715;28;20033;-78
2024/01/25 08:18:11;;;;;;;47.05;13.13;;;8.00;99.90;;;;;;5044506;28;20408;-78
2024/01/25 08:20:38;;;;;;;55.55;13.68;;;8.10;99.90;;;;;;5028832;28;20037;-76
2024/01/25 08:23:03;;;;;;;67.93;14.00;;;8.60;99.90;;;;;;5066140;28;20588;-78
2024/01/25 08:25:29;;;;;;;56.33;11.93;;;8.80;99.90;;;;;;5029320;28;20106;-78
2024/01/25 08:27:55;;;;;;;60.60;12.18;;;8.50;99.90;;;;;;5056991;28;20064;-80
2024/01/25 08:30:21;;;;;;;43.45;10.55;;;8.30;99.90;;;;;;5046867;28;20104;-77
2024/01/25 08:32:46;;;;;;;50.90;11.18;;;8.10;99.90;;;;;;5015769;28;20032;-77
2024/01/25 08:35:12;;;;;;;48.45;10.23;;;8.90;99.90;;;;;;5062418;28;20353;-77
2024/01/25 08:37:38;;;;;;;58.72;11.32;;;8.20;99.90;;;;;;5011384;28;20071;-81
2024/01/25 08:40:06;;;;;;;45.58;10.65;;;8.90;99.90;;;;;;5029261;28;20556;-78
2024/01/25 08:42:32;;;;;;;53.20;11.75;;;8.60;99.90;;;;;;5054780;28;20044;-77
2024/01/25 08:44:58;;;;;;;46.55;9.82;;;8.80;99.90;;;;;;5064127;28;20059;-78
2024/01/25 08:47:24;;;;;;;46.28;11.02;;;8.50;99.90;;;;;;5038444;28;20040;-77
2024/01/25 08:49:49;;;;;;;49.05;10.50;;;9.20;99.90;;;;;;5037847;28;20076;-79
2024/01/25 08:52:15;;;;;;;53.97;11.43;;;8.70;99.90;;;;;;5043138;28;20071;-77
2024/01/25 08:54:42;;;;;;;45.22;10.63;;;9.10;99.90;;;;;;5039485;28;20037;-77
2024/01/25 08:57:07;;;;;;;50.92;10.43;;;8.60;99.90;;;;;;5016038;28;20433;-79
2024/01/25 08:59:37;;;;;;;47.22;9.90;;;9.40;99.90;;;;;;5046472;28;20061;-77
2024/01/25 09:02:05;;;;;;;46.97;10.50;;;9.50;99.90;;;;;;5032039;28;20138;-79
2024/01/25 09:04:32;;;;;;;50.20;10.95;;;9.20;99.90;;;;;;5032226;28;20037;-78
2024/01/25 09:06:58;;;;;;;51.92;12.75;;;8.60;99.90;;;;;;5062569;28;20095;-78
2024/01/25 09:09:23;;;;;;;41.83;10.35;;;9.60;99.90;;;;;;5067888;28;20174;-78
2024/01/25 09:11:49;;;;;;;52.55;10.48;;;9.60;99.90;;;;;;5035954;28;20041;-80
2024/01/25 09:14:15;;;;;;;41.83;9.82;;;9.10;99.90;;;;;;5059470;28;20033;-78
2024/01/25 09:16:40;;;;;;;49.88;10.48;;;9.60;99.90;;;;;;5046644;28;20040;-77
2024/01/25 09:19:06;;;;;;;54.50;11.07;;;9.10;99.90;;;;;;5048179;28;20076;-77
2024/01/25 09:21:32;;;;;;;51.10;11.75;;;8.90;99.90;;;;;;5063418;28;20047;-78
2024/01/25 09:23:59;;;;;;;55.42;11.95;;;9.60;99.90;;;;;;5042411;28;20045;-78
2024/01/25 09:26:25;;;;;;;52.35;11.55;;;9.10;99.90;;;;;;5040053;28;20131;-80
2024/01/25 09:28:50;;;;;;;47.97;10.77;;;9.90;99.90;;;;;;5089925;28;20140;-79
2024/01/25 09:31:16;;;;;;;41.50;11.38;;;10.00;99.90;;;;;;5058532;28;20051;-79
2024/01/25 09:33:42;;;;;;;48.63;11.18;;;9.80;99.90;;;;;;5044437;28;20040;-77
2024/01/25 09:36:07;;;;;;;46.47;11.45;;;10.00;99.90;;;;;;5049468;28;20028;-78
2024/01/25 09:38:33;;;;;;;53.00;12.35;;;9.50;99.90;;;;;;5057014;28;20044;-80
2024/01/25 09:41:01;;;;;;;50.03;10.68;;;10.00;99.90;;;;;;5048697;28;20052;-82
2024/01/25 09:43:27;;;;;;;37.88;9.80;;;9.70;99.90;;;;;;5052789;28;20029;-79
2024/01/25 09:45:56;;;;;;;36.50;9.23;;;9.90;99.90;;;;;;5039579;28;20358;-81
2024/01/25 09:48:23;;;;;;;39.13;9.60;;;10.00;99.90;;;;;;5062908;28;20045;-80
2024/01/25 09:50:48;;;;;;;36.97;9.80;;;9.60;99.90;;;;;;5060509;28;20047;-79
2024/01/25 09:53:22;;;;;;;45.95;10.68;;;9.60;99.90;;;;;;5067331;28;20032;-79
2024/01/25 09:56:12;;;;;;;44.55;10.10;;;10.80;99.90;;;;;;5066499;28;20097;-79
2024/01/25 09:58:40;;;;;;;45.53;10.07;;;9.60;99.90;;;;;;5066250;28;20041;-78
2024/01/25 10:01:12;;;;;;;38.63;9.82;;;9.70;99.90;;;;;;5059203;28;20036;-78
2024/01/25 10:03:41;;;;;;;37.60;10.05;;;10.60;99.90;;;;;;5042998;28;20378;-78
2024/01/25 10:06:08;;;;;;;42.88;9.70;;;10.50;99.90;;;;;;5067335;28;20033;-79
2024/01/25 10:08:34;;;;;;;35.25;9.18;;;10.50;99.90;;;;;;5067781;28;20037;-80
2024/01/25 10:11:00;;;;;;;45.72;10.25;;;11.00;99.90;;;;;;5064960;28;20123;-80
2024/01/25 10:13:29;;;;;;;48.85;10.88;;;10.30;99.90;;;;;;5023623;28;20024;-81
2024/01/25 10:15:56;;;;;;;36.67;9.75;;;11.20;99.90;;;;;;5060792;28;20041;-81
2024/01/25 10:18:25;;;;;;;36.17;9.35;;;10.80;99.90;;;;;;5033361;28;20055;-80
2024/01/25 10:20:54;;;;;;;43.92;10.43;;;12.50;99.90;;;;;;5050202;28;20091;-80
2024/01/25 10:23:21;;;;;;;30.80;8.38;;;12.90;99.90;;;;;;5066443;28;20059;-82
2024/01/25 10:25:47;;;;;;;35.85;8.27;;;13.00;99.90;;;;;;5058632;28;20361;-84
2024/01/25 10:28:13;;;;;;;34.88;8.90;;;12.30;99.90;;;;;;5050790;28;20040;-82
2024/01/25 10:30:39;;;;;;;31.50;8.82;;;12.80;99.90;;;;;;5030502;28;20048;-80
2024/01/25 10:33:04;;;;;;;29.67;8.27;;;12.70;99.90;;;;;;5065072;28;20037;-82
2024/01/25 10:35:31;;;;;;;32.25;7.45;;;13.60;99.90;;;;;;5071828;28;20056;-83
2024/01/25 10:37:57;;;;;;;32.22;8.00;;;12.30;99.90;;;;;;5032749;28;20044;-80
2024/01/25 10:40:24;;;;;;;38.72;9.13;;;12.70;99.90;;;;;;5047659;28;20048;-78
2024/01/25 10:42:50;;;;;;;33.83;8.35;;;12.90;99.90;;;;;;5037435;28;20080;-83
2024/01/25 10:45:16;;;;;;;28.92;7.32;;;11.50;99.90;;;;;;5040077;28;20136;-84
2024/01/25 10:47:44;;;;;;;34.55;8.90;;;12.10;99.90;;;;;;5049186;28;20556;-83
2024/01/25 10:50:13;;;;;;;31.17;7.93;;;11.70;99.90;;;;;;5063744;28;20052;-80
2024/01/25 10:52:40;;;;;;;31.98;8.10;;;11.40;99.90;;;;;;5068393;28;20048;-81
2024/01/25 10:55:07;;;;;;;33.20;8.00;;;11.30;99.90;;;;;;5045831;28;20029;-81
2024/01/25 10:57:52;;;;;;;36.08;8.82;;;12.10;99.90;;;;;;5044847;28;20037;-83
2024/01/25 11:00:18;;;;;;;42.80;8.90;;;11.50;99.90;;;;;;5035990;28;20033;-84
2024/01/25 11:02:46;;;;;;;27.38;8.55;;;11.20;99.90;;;;;;5043682;28;20114;-83
2024/01/25 11:05:16;;;;;;;33.88;8.77;;;12.20;99.90;;;;;;5047500;28;20123;-81
2024/01/25 11:07:50;;;;;;;34.28;8.20;;;12.00;99.90;;;;;;5063315;28;20056;-82
2024/01/25 11:10:18;;;;;;;33.47;9.37;;;12.90;99.90;;;;;;5073360;28;20032;-85
2024/01/25 11:12:48;;;;;;;33.67;8.32;;;13.30;99.90;;;;;;5050558;28;20049;-83
2024/01/25 11:15:19;;;;;;;33.10;8.48;;;13.00;99.90;;;;;;5043114;28;20071;-85
2024/01/25 11:17:56;;;;;;;30.25;7.68;;;13.50;99.90;;;;;;5040913;28;20052;-83
2024/01/25 11:20:25;;;;;;;26.98;7.72;;;13.20;99.90;;;;;;5041236;28;20044;-83
2024/01/25 11:22:59;;;;;;;28.90;7.50;;;14.30;99.90;;;;;;5040922;28;20098;-85
2024/01/25 11:25:32;;;;;;;32.13;9.25;;;13.50;99.90;;;;;;5086158;28;20489;-82
2024/01/25 11:27:59;;;;;;;30.13;7.50;;;13.50;99.90;;;;;;5042597;28;20471;-83
2024/01/25 11:30:30;;;;;;;28.15;6.47;;;13.80;99.90;;;;;;5042648;28;20044;-80
2024/01/25 11:32:56;;;;;;;29.35;7.10;;;12.90;99.90;;;;;;5054004;28;20055;-81
2024/01/25 11:35:22;;;;;;;26.58;7.53;;;13.00;99.90;;;;;;5020745;28;20117;-83
2024/01/25 11:37:51;;;;;;;27.55;7.00;;;12.40;99.90;;;;;;5045376;28;20040;-82
2024/01/25 11:40:16;;;;;;;32.40;8.68;;;13.10;99.90;;;;;;5059915;28;20052;-81
2024/01/25 11:42:44;;;;;;;33.95;7.55;;;12.20;99.90;;;;;;5026328;28;20045;-81
2024/01/25 11:45:14;;;;;;;33.30;7.93;;;12.00;99.90;;;;;;5063462;28;20044;-81
2024/01/25 11:47:41;;;;;;;37.53;8.85;;;12.70;99.90;;;;;;5041890;28;20546;-79
2024/01/25 11:50:09;;;;;;;35.10;7.32;;;12.70;99.90;;;;;;5041771;28;20563;-82
2024/01/25 11:52:36;;;;;;;30.00;7.70;;;12.40;99.90;;;;;;5022043;28;20469;-81
2024/01/25 11:55:07;;;;;;;30.30;8.35;;;11.90;99.90;;;;;;5042189;28;20182;-83
2024/01/25 11:57:38;;;;;;;30.55;7.90;;;12.00;99.90;;;;;;5024059;28;20083;-84
2024/01/25 12:00:09;;;;;;;27.80;8.45;;;12.00;99.90;;;;;;5049519;28;20033;-80
2024/01/25 12:02:36;;;;;;;34.55;7.72;;;11.90;99.90;;;;;;5055987;28;20797;-81
2024/01/25 12:05:03;;;;;;;30.52;7.65;;;11.90;99.90;;;;;;5055447;28;20067;-80
2024/01/25 12:07:33;;;;;;;29.90;7.88;;;12.10;99.90;;;;;;5062375;28;20045;-81
2024/01/25 12:10:05;;;;;;;30.15;8.50;;;12.10;99.90;;;;;;5025535;28;20036;-84
2024/01/25 12:12:31;;;;;;;37.92;9.15;;;11.70;99.90;;;;;;5048542;28;20068;-80
2024/01/25 12:14:58;;;;;;;37.72;9.05;;;11.30;99.90;;;;;;5050712;28;20439;-82
2024/01/25 12:17:26;;;;;;;28.85;7.57;;;11.60;99.90;;;;;;5057348;28;20457;-81
2024/01/25 12:19:54;;;;;;;26.23;7.80;;;11.90;99.90;;;;;;5031866;28;20036;-82
2024/01/25 12:22:21;;;;;;;33.90;8.30;;;11.50;99.90;;;;;;5032567;28;20058;-82
2024/01/25 12:24:48;;;;;;;27.00;7.40;;;12.00;99.90;;;;;;5031085;28;20492;-82
2024/01/25 12:27:15;;;;;;;27.70;7.90;;;11.80;99.90;;;;;;5033413;28;20048;-80
2024/01/25 12:29:43;;;;;;;29.50;8.35;;;11.60;99.90;;;;;;5082098;28;20113;-81
2024/01/25 12:32:09;;;;;;;32.53;9.23;;;11.60;99.90;;;;;;5010638;28;20034;-82
2024/01/25 12:34:37;;;;;;;30.38;8.57;;;11.60;99.90;;;;;;5045432;28;20124;-79